createdAt,value
2023-01-07T00:01:32.858Z,99881.50
2023-01-07T00:04:01.548Z,99874.06
2023-01-07T00:06:32.707Z,99871.59
2023-01-07T00:09:00.802Z,99861.38
2023-01-07T00:11:30.477Z,99854.47
2023-01-07T00:13:58.833Z,99842.66
2023-01-07T00:16:28.534Z,99831.84
2023-01-07T00:18:56.612Z,99831.84
2023-01-07T00:21:25.020Z,99818.22
2023-01-07T00:23:56.635Z,99812.56
2023-01-07T00:26:24.823Z,99808.97
2023-01-07T00:28:52.658Z,99789.34
2023-01-07T00:31:25.109Z,99783.47
2023-01-07T00:34:06.718Z,99779.91
2023-01-07T00:36:34.478Z,99772.50
2023-01-07T00:39:02.970Z,99764.00
2023-01-07T00:41:29.653Z,99751.03
2023-01-07T00:43:57.094Z,99743.66
2023-01-07T00:46:23.707Z,99734.50
2023-01-07T00:48:50.840Z,99732.94
2023-01-07T00:51:18.937Z,99716.22
2023-01-07T00:53:45.758Z,99717.75
2023-01-07T00:56:14.698Z,99714.41
2023-01-07T00:58:42.098Z,99712.06
2023-01-07T01:01:11.048Z,99709.69
2023-01-07T01:03:38.851Z,99699.31
2023-01-07T01:06:08.806Z,99701.03
2023-01-07T01:08:35.730Z,99692.41
2023-01-07T01:11:05.262Z,99679.75
2023-01-07T01:13:32.549Z,99677.56
2023-01-07T01:15:59.712Z,99671.63
2023-01-07T01:18:26.431Z,99666.41
2023-01-07T01:20:52.935Z,99670.25
2023-01-07T01:23:19.419Z,99663.44
2023-01-07T01:25:45.905Z,99658.38
2023-01-07T01:28:12.477Z,99663.47
2023-01-07T01:30:39.097Z,99665.78
2023-01-07T01:33:06.175Z,99656.06
2023-01-07T01:35:32.699Z,99654.84
2023-01-07T01:38:00.704Z,99650.56
2023-01-07T01:40:30.179Z,99644.72
2023-01-07T01:42:56.775Z,99642.38
2023-01-07T01:45:25.567Z,99641.41
2023-01-07T01:47:56.792Z,99638.13
2023-01-07T01:50:28.968Z,99633.88
2023-01-07T01:53:05.021Z,99635.63
2023-01-07T01:55:37.440Z,99628.13
2023-01-07T01:58:08.121Z,99618.66
2023-01-07T02:00:35.979Z,99622.81
2023-01-07T02:03:06.699Z,99622.25
2023-01-07T02:05:37.772Z,99612.16
2023-01-07T02:08:06.357Z,99617.03
2023-01-07T02:10:33.415Z,99612.28
2023-01-07T02:13:37.169Z,99615.81
2023-01-07T02:16:10.028Z,99611.53
2023-01-07T02:18:47.820Z,99607.06
2023-01-07T02:21:24.165Z,99595.97
2023-01-07T02:24:16.798Z,99595.97
2023-01-07T02:26:52.269Z,99593.22
2023-01-07T02:30:05.157Z,99588.19
2023-01-07T02:32:43.403Z,99581.66
2023-01-07T02:35:31.523Z,99576.72
2023-01-07T02:38:07.077Z,99582.06
2023-01-07T02:40:53.828Z,99576.72
2023-01-07T02:44:03.508Z,99568.41
2023-01-07T02:46:49.627Z,99562.47
2023-01-07T02:49:17.474Z,99559.22
2023-01-07T02:51:46.257Z,99561.81
2023-01-07T02:54:17.320Z,99565.44
2023-01-07T02:57:21.118Z,99564.53
2023-01-07T02:59:57.785Z,99565.41
2023-01-07T03:02:45.969Z,99559.53
2023-01-07T03:05:22.953Z,99558.66
2023-01-07T03:08:27.108Z,99569.75
2023-01-07T03:11:05.776Z,99551.97
2023-01-07T03:13:48.918Z,99546.81
2023-01-07T03:16:27.656Z,99553.66
2023-01-07T03:19:01.702Z,99539.25
2023-01-07T03:21:31.428Z,99544.34
2023-01-07T03:23:58.770Z,99535.81
2023-01-07T03:26:31.436Z,99542.06
2023-01-07T03:29:00.871Z,99539.38
2023-01-07T03:31:29.612Z,99534.09
2023-01-07T03:34:08.546Z,99530.94
2023-01-07T03:36:42.644Z,99526.00
2023-01-07T03:39:11.819Z,99525.91
2023-01-07T03:41:57.916Z,99524.16
2023-01-07T03:44:24.719Z,99527.69
2023-01-07T03:46:52.448Z,99527.63
2023-01-07T03:49:19.158Z,99525.16
2023-01-07T03:51:46.608Z,99526.91
2023-01-07T03:54:13.871Z,99528.50
2023-01-07T03:56:40.511Z,99525.06
2023-01-07T03:59:07.049Z,99530.28
2023-01-07T04:01:33.742Z,99530.22
2023-01-07T04:04:03.011Z,99538.84
2023-01-07T04:06:29.824Z,99537.94
2023-01-07T04:08:56.359Z,99543.28
2023-01-07T04:11:22.892Z,99553.38
2023-01-07T04:13:49.427Z,99562.63
2023-01-07T04:16:16.034Z,99557.53
2023-01-07T04:18:42.605Z,99552.28
2023-01-07T04:21:09.277Z,99557.53
2023-01-07T04:23:35.768Z,99563.59
2023-01-07T04:26:02.602Z,99566.25
2023-01-07T04:28:29.125Z,99578.31
2023-01-07T04:30:58.727Z,99585.22
2023-01-07T04:33:25.344Z,99593.75
2023-01-07T04:35:51.970Z,99588.47
2023-01-07T04:38:18.510Z,99588.53
2023-01-07T04:40:45.774Z,99581.69
2023-01-07T04:43:12.303Z,99594.78
2023-01-07T04:45:38.842Z,99599.66
2023-01-07T04:48:05.635Z,99605.00
2023-01-07T04:50:32.222Z,99610.91
2023-01-07T04:52:58.754Z,99623.53
2023-01-07T04:55:25.392Z,99621.03
2023-01-07T04:57:51.961Z,99624.50
2023-01-07T05:00:19.067Z,99625.09
2023-01-07T05:02:46.111Z,99633.84
2023-01-07T05:05:12.931Z,99626.19
2023-01-07T05:07:39.457Z,99630.13
2023-01-07T05:10:06.452Z,99608.88
2023-01-07T05:12:36.677Z,99615.09
2023-01-07T05:15:06.979Z,99622.13
2023-01-07T05:17:33.984Z,99621.38
2023-01-07T05:20:00.776Z,99604.94
2023-01-07T05:22:27.301Z,99610.06
2023-01-07T05:24:53.831Z,99618.66
2023-01-07T05:27:20.450Z,99622.91
2023-01-07T05:29:47.171Z,99618.00
2023-01-07T05:32:13.685Z,99623.97
2023-01-07T05:34:40.411Z,99625.56
2023-01-07T05:37:06.947Z,99622.84
2023-01-07T05:39:33.644Z,99615.16
2023-01-07T05:42:00.278Z,99609.31
2023-01-07T05:44:26.786Z,99606.84
2023-01-07T05:46:53.397Z,99611.47
2023-01-07T05:49:20.231Z,99617.06
2023-01-07T05:51:46.849Z,99609.56
2023-01-07T05:54:13.555Z,99602.66
2023-01-07T05:56:40.229Z,99608.75
2023-01-07T05:59:06.694Z,99615.53
2023-01-07T06:01:33.409Z,99613.16
2023-01-07T06:04:00.019Z,99613.91
2023-01-07T06:06:26.522Z,99624.22
2023-01-07T06:08:53.108Z,99625.88
2023-01-07T06:11:20.170Z,99628.25
2023-01-07T06:13:46.715Z,99631.75
2023-01-07T06:16:14.156Z,99642.34
2023-01-07T06:18:40.849Z,99644.47
2023-01-07T06:21:07.456Z,99642.88
2023-01-07T06:23:34.101Z,99638.56
2023-01-07T06:26:00.743Z,99635.31
2023-01-07T06:28:27.333Z,99630.38
2023-01-07T06:30:53.965Z,99622.66
2023-01-07T06:33:21.576Z,99618.44
2023-01-07T06:35:48.404Z,99621.03
2023-01-07T06:38:15.011Z,99611.78
2023-01-07T06:40:41.616Z,99614.03
2023-01-07T06:43:08.208Z,99612.56
2023-01-07T06:45:34.821Z,99605.78
2023-01-07T06:48:01.518Z,99598.66
2023-01-07T06:50:28.112Z,99589.44
2023-01-07T06:52:54.709Z,99583.22
2023-01-07T06:55:21.198Z,99572.97
2023-01-07T06:57:47.738Z,99557.63
2023-01-07T07:00:14.777Z,99548.59
2023-01-07T07:02:41.365Z,99542.75
2023-01-07T07:05:08.000Z,99528.03
2023-01-07T07:07:34.590Z,99516.91
2023-01-07T07:10:04.713Z,99510.34
2023-01-07T07:12:31.294Z,99510.22
2023-01-07T07:14:57.888Z,99495.00
2023-01-07T07:17:25.286Z,99488.00
2023-01-07T07:19:51.793Z,99489.06
2023-01-07T07:22:18.547Z,99481.44
2023-01-07T07:24:45.056Z,99478.75
2023-01-07T07:27:11.594Z,99465.00
2023-01-07T07:29:38.161Z,99446.22
2023-01-07T07:32:05.026Z,99442.81
2023-01-07T07:34:31.605Z,99436.16
2023-01-07T07:36:58.194Z,99432.75
2023-01-07T07:39:25.344Z,99423.59
2023-01-07T07:41:51.914Z,99427.06
2023-01-07T07:44:18.499Z,99427.09
2023-01-07T07:46:45.177Z,99425.50
2023-01-07T07:49:12.518Z,99422.66
2023-01-07T07:51:39.199Z,99425.34
2023-01-07T07:54:05.794Z,99414.56
2023-01-07T07:56:32.281Z,99423.13
2023-01-07T07:58:58.839Z,99410.50
2023-01-07T08:01:26.223Z,99414.13
2023-01-07T08:03:52.853Z,99426.53
2023-01-07T08:06:19.415Z,99421.72
2023-01-07T08:08:45.917Z,99426.03
2023-01-07T08:11:12.518Z,99413.47
2023-01-07T08:13:39.250Z,99423.00
2023-01-07T08:16:06.193Z,99429.09
2023-01-07T08:18:32.793Z,99439.34
2023-01-07T08:20:59.316Z,99442.84
2023-01-07T08:23:28.174Z,99451.34
2023-01-07T08:25:59.634Z,99450.72
2023-01-07T08:28:26.305Z,99453.50
2023-01-07T08:30:53.024Z,99456.19
2023-01-07T08:33:19.689Z,99467.31
2023-01-07T08:35:46.319Z,99474.25
2023-01-07T08:38:12.988Z,99492.41
2023-01-07T08:40:39.798Z,99506.13
2023-01-07T08:43:08.103Z,99510.47
2023-01-07T08:45:34.983Z,99521.59
2023-01-07T08:48:01.592Z,99514.88
2023-01-07T08:50:30.661Z,99526.25
2023-01-07T08:52:58.531Z,99532.06
2023-01-07T08:55:25.344Z,99527.19
2023-01-07T08:57:52.207Z,99542.41
2023-01-07T09:00:19.672Z,99537.56
2023-01-07T09:02:46.334Z,99543.59
2023-01-07T09:05:13.026Z,99541.19
2023-01-07T09:07:39.553Z,99546.09
2023-01-07T09:10:06.808Z,99554.00
2023-01-07T09:12:33.480Z,99554.06
2023-01-07T09:15:00.760Z,99559.19
2023-01-07T09:17:28.098Z,99554.16
2023-01-07T09:19:54.735Z,99564.38
2023-01-07T09:22:22.607Z,99568.63
2023-01-07T09:24:49.156Z,99568.91
2023-01-07T09:27:16.703Z,99571.50
2023-01-07T09:29:43.600Z,99581.00
2023-01-07T09:32:10.727Z,99587.06
2023-01-07T09:34:38.455Z,99587.19
2023-01-07T09:37:05.911Z,99596.50
2023-01-07T09:39:33.110Z,99592.47
2023-01-07T09:42:35.225Z,99589.84
2023-01-07T09:45:15.337Z,99601.06
2023-01-07T09:47:48.559Z,99590.16
2023-01-07T09:50:40.878Z,99601.34
2023-01-07T09:53:16.408Z,99604.75
2023-01-07T09:56:09.956Z,99602.44
2023-01-07T09:58:30.684Z,99621.31
2023-01-07T10:00:57.130Z,99625.81
2023-01-07T10:03:37.142Z,99632.59
2023-01-07T10:06:35.069Z,99629.16
2023-01-07T10:09:15.846Z,99624.16
2023-01-07T10:11:49.325Z,99634.94
2023-01-07T10:14:53.354Z,99624.09
2023-01-07T10:17:34.780Z,99615.56
2023-01-07T10:20:21.587Z,99619.69
2023-01-07T10:22:57.371Z,99613.09
2023-01-07T10:25:31.947Z,99612.22
2023-01-07T10:28:01.312Z,99605.47
2023-01-07T10:30:35.833Z,99619.19
2023-01-07T10:33:11.112Z,99626.19
2023-01-07T10:35:40.236Z,99627.84
2023-01-07T10:38:15.076Z,99638.25
2023-01-07T10:40:51.703Z,99649.34
2023-01-07T10:43:25.661Z,99648.69
2023-01-07T10:45:55.056Z,99658.16
2023-01-07T10:48:39.464Z,99665.19
2023-01-07T10:51:42.304Z,99665.44
2023-01-07T10:54:30.549Z,99670.59
2023-01-07T10:57:21.350Z,99682.66
2023-01-07T10:59:50.599Z,99699.22
2023-01-07T11:02:20.706Z,99712.09
2023-01-07T11:04:47.519Z,99719.22
2023-01-07T11:07:47.629Z,99720.22
2023-01-07T11:10:20.832Z,99734.09
2023-01-07T11:12:50.026Z,99727.97
2023-01-07T11:15:22.904Z,99727.31
2023-01-07T11:17:56.685Z,99731.72
2023-01-07T11:20:41.952Z,99731.53
2023-01-07T11:23:38.317Z,99746.94
2023-01-07T11:26:18.038Z,99752.22
2023-01-07T11:28:58.022Z,99758.28
2023-01-07T11:31:58.639Z,99750.78
2023-01-07T11:34:50.292Z,99771.63
2023-01-07T11:37:38.840Z,99769.19
2023-01-07T11:40:20.116Z,99779.34
2023-01-07T11:42:55.262Z,99775.31
2023-01-07T11:45:34.057Z,99770.91
2023-01-07T11:48:15.563Z,99772.63
2023-01-07T11:50:54.394Z,99781.50
2023-01-07T11:53:38.702Z,99779.00
2023-01-07T11:56:33.524Z,99790.38
2023-01-07T11:59:12.060Z,99786.88
2023-01-07T12:02:02.214Z,99800.97
2023-01-07T12:04:35.857Z,99801.69
2023-01-07T12:07:06.861Z,99798.28
2023-01-07T12:09:35.985Z,99788.13
2023-01-07T12:12:40.189Z,99790.72
2023-01-07T12:15:21.217Z,99795.13
2023-01-07T12:17:53.122Z,99800.22
2023-01-07T12:20:28.303Z,99804.34
2023-01-07T12:23:34.014Z,99800.09
2023-01-07T12:26:12.736Z,99790.00
2023-01-07T12:29:08.445Z,99787.44
2023-01-07T12:31:37.806Z,99800.56
2023-01-07T12:34:33.381Z,99807.59
2023-01-07T12:37:05.210Z,99811.03
2023-01-07T12:39:38.044Z,99814.34
2023-01-07T12:42:13.417Z,99807.41
2023-01-07T12:44:46.364Z,99815.38
2023-01-07T12:47:31.276Z,99814.53
2023-01-07T12:50:14.874Z,99808.44
2023-01-07T12:52:51.512Z,99806.94
2023-01-07T12:55:43.076Z,99810.00
2023-01-07T12:58:28.516Z,99816.94
2023-01-07T13:01:10.524Z,99816.88
2023-01-07T13:03:44.493Z,99829.03
2023-01-07T13:06:35.056Z,99853.72
2023-01-07T13:09:23.980Z,99865.91
2023-01-07T13:12:40.693Z,99880.47
2023-01-07T13:15:10.340Z,99884.03
2023-01-07T13:17:37.288Z,99877.19
2023-01-07T13:20:11.456Z,99872.88
2023-01-07T13:22:51.384Z,99871.38
2023-01-07T13:25:59.327Z,99874.09
2023-01-07T13:28:37.786Z,99886.09
2023-01-07T13:31:20.508Z,99877.41
2023-01-07T13:34:16.406Z,99864.59
2023-01-07T13:37:04.651Z,99857.75
2023-01-07T13:39:45.894Z,99849.34
2023-01-07T13:42:20.022Z,99839.97
2023-01-07T13:45:14.535Z,99839.06
2023-01-07T13:47:54.647Z,99836.69
2023-01-07T13:50:25.696Z,99833.00
2023-01-07T13:52:58.486Z,99831.97
2023-01-07T13:55:35.671Z,99832.03
2023-01-07T13:58:02.983Z,99829.66
2023-01-07T14:00:40.815Z,99833.88
2023-01-07T14:03:25.931Z,99826.03
2023-01-07T14:06:18.207Z,99818.94
2023-01-07T14:08:47.348Z,99811.44
2023-01-07T14:11:14.656Z,99791.75
2023-01-07T14:14:10.424Z,99788.25
2023-01-07T14:16:42.884Z,99781.19
2023-01-07T14:19:35.088Z,99776.03
2023-01-07T14:22:04.638Z,99774.25
2023-01-07T14:24:52.235Z,99777.69
2023-01-07T14:27:59.950Z,99766.72
2023-01-07T14:30:31.215Z,99761.47
2023-01-07T14:33:04.498Z,99746.88
2023-01-07T14:35:40.437Z,99749.41
2023-01-07T14:38:31.925Z,99755.50
2023-01-07T14:41:09.261Z,99748.47
2023-01-07T14:43:42.182Z,99739.81
2023-01-07T14:46:34.886Z,99727.81
2023-01-07T14:49:04.163Z,99708.28
2023-01-07T14:52:21.564Z,99695.16
2023-01-07T14:55:26.341Z,99694.38
2023-01-07T14:58:11.262Z,99687.69
2023-01-07T15:00:56.991Z,99693.66
2023-01-07T15:03:48.885Z,99688.66
2023-01-07T15:06:39.252Z,99687.81
2023-01-07T15:09:31.218Z,99682.66
2023-01-07T15:12:20.232Z,99687.06
2023-01-07T15:15:11.152Z,99691.25
2023-01-07T15:17:41.023Z,99688.69
2023-01-07T15:20:10.333Z,99698.16
2023-01-07T15:22:48.011Z,99690.50
2023-01-07T15:25:40.892Z,99692.97
2023-01-07T15:28:43.091Z,99688.66
2023-01-07T15:31:23.863Z,99679.81
2023-01-07T15:34:02.790Z,99685.78
2023-01-07T15:36:30.325Z,99686.47
2023-01-07T15:38:59.746Z,99686.47
2023-01-07T15:41:30.958Z,99677.66
2023-01-07T15:43:59.629Z,99678.44
2023-01-07T15:46:27.406Z,99669.00
2023-01-07T15:49:05.202Z,99676.56
2023-01-07T15:51:32.297Z,99679.31
2023-01-07T15:53:58.827Z,99672.28
2023-01-07T15:56:25.719Z,99668.91
2023-01-07T15:58:52.596Z,99661.81
2023-01-07T16:01:21.837Z,99663.72
2023-01-07T16:03:52.390Z,99672.09
2023-01-07T16:06:35.839Z,99662.75
2023-01-07T16:09:16.364Z,99660.16
2023-01-07T16:11:43.091Z,99664.41
2023-01-07T16:14:19.320Z,99657.56
2023-01-07T16:16:46.123Z,99661.78
2023-01-07T16:19:21.323Z,99661.13
2023-01-07T16:21:55.265Z,99667.84
2023-01-07T16:24:22.085Z,99663.44
2023-01-07T16:26:53.006Z,99656.63
2023-01-07T16:29:27.087Z,99654.91
2023-01-07T16:31:55.297Z,99654.91
2023-01-07T16:34:24.886Z,99651.38
2023-01-07T16:36:55.578Z,99650.56
2023-01-07T16:39:25.592Z,99671.03
2023-01-07T16:42:12.357Z,99666.00
2023-01-07T16:44:58.195Z,99670.22
2023-01-07T16:47:27.353Z,99663.25
2023-01-07T16:49:56.030Z,99659.06
2023-01-07T16:52:28.643Z,99666.72
2023-01-07T16:54:55.146Z,99663.22
2023-01-07T16:57:38.929Z,99663.91
2023-01-07T17:00:17.098Z,99664.91
2023-01-07T17:02:55.205Z,99656.16
2023-01-07T17:05:27.766Z,99653.44
2023-01-07T17:08:05.260Z,99651.13
2023-01-07T17:10:40.609Z,99653.47
2023-01-07T17:13:31.968Z,99659.19
2023-01-07T17:16:26.290Z,99658.50
2023-01-07T17:18:54.379Z,99656.69
2023-01-07T17:21:41.499Z,99661.84
2023-01-07T17:24:43.239Z,99657.44
2023-01-07T17:27:20.959Z,99651.50
2023-01-07T17:29:49.356Z,99651.50
2023-01-07T17:32:16.113Z,99666.09
2023-01-07T17:34:42.643Z,99663.47
2023-01-07T17:37:14.006Z,99667.72
2023-01-07T17:39:41.160Z,99660.06
2023-01-07T17:42:46.935Z,99660.03
2023-01-07T17:45:18.782Z,99660.84
2023-01-07T17:47:46.471Z,99652.22
2023-01-07T17:50:14.709Z,99642.91
2023-01-07T17:52:44.400Z,99630.75
2023-01-07T17:55:21.491Z,99638.66
2023-01-07T17:57:48.132Z,99631.88
2023-01-07T18:00:36.680Z,99641.13
2023-01-07T18:03:03.643Z,99616.25
2023-01-07T18:05:30.289Z,99622.16
2023-01-07T18:07:57.166Z,99616.88
2023-01-07T18:10:29.024Z,99610.09
2023-01-07T18:12:56.143Z,99606.69
2023-01-07T18:15:27.900Z,99612.53
2023-01-07T18:17:54.443Z,99611.63
2023-01-07T18:20:22.638Z,99590.19
2023-01-07T18:22:49.708Z,99581.59
2023-01-07T18:25:22.188Z,99578.09
2023-01-07T18:27:52.874Z,99567.84
2023-01-07T18:30:21.525Z,99572.25
2023-01-07T18:32:49.733Z,99573.91
2023-01-07T18:35:19.243Z,99581.56
2023-01-07T18:37:50.055Z,99588.34
2023-01-07T18:40:16.783Z,99590.03
2023-01-07T18:42:43.327Z,99575.41
2023-01-07T18:45:10.689Z,99560.94
2023-01-07T18:47:37.310Z,99536.19
2023-01-07T18:50:05.018Z,99553.97
2023-01-07T18:52:33.480Z,99552.34
2023-01-07T18:55:00.241Z,99550.53
2023-01-07T18:57:26.875Z,99559.19
2023-01-07T18:59:53.519Z,99565.16
2023-01-07T19:02:21.539Z,99574.34
2023-01-07T19:04:49.089Z,99581.28
2023-01-07T19:07:16.812Z,99578.63
2023-01-07T19:09:43.845Z,99582.03
2023-01-07T19:12:14.330Z,99584.72
2023-01-07T19:14:41.693Z,99599.03
2023-01-07T19:17:08.862Z,99574.03
2023-01-07T19:19:47.313Z,99557.81
2023-01-07T19:22:16.027Z,99552.59
2023-01-07T19:24:42.811Z,99540.63
2023-01-07T19:27:11.525Z,99523.53
2023-01-07T19:29:38.124Z,99523.56
2023-01-07T19:32:05.018Z,99514.00
2023-01-07T19:34:32.161Z,99502.91
2023-01-07T19:36:58.764Z,99485.69
2023-01-07T19:39:25.376Z,99460.97
2023-01-07T19:41:52.133Z,99460.97
2023-01-07T19:44:18.822Z,99437.72
2023-01-07T19:46:45.331Z,99439.41
2023-01-07T19:49:13.508Z,99451.44
2023-01-07T19:51:42.085Z,99455.63
2023-01-07T19:54:17.439Z,99450.66
2023-01-07T19:56:44.222Z,99438.66
2023-01-07T19:59:11.198Z,99439.47
2023-01-07T20:01:39.004Z,99437.00
2023-01-07T20:04:07.731Z,99437.91
2023-01-07T20:06:38.811Z,99428.47
2023-01-07T20:09:10.833Z,99430.94
2023-01-07T20:11:42.533Z,99421.53
2023-01-07T20:14:09.087Z,99420.69
2023-01-07T20:16:36.999Z,99419.06
2023-01-07T20:19:03.882Z,99421.59
2023-01-07T20:21:30.509Z,99419.16
2023-01-07T20:23:57.132Z,99423.25
2023-01-07T20:26:26.625Z,99426.81
2023-01-07T20:28:53.556Z,99446.59
2023-01-07T20:31:21.639Z,99443.13
2023-01-07T20:33:50.546Z,99439.69
2023-01-07T20:36:19.527Z,99439.59
2023-01-07T20:38:48.863Z,99445.59
2023-01-07T20:41:17.955Z,99453.88
2023-01-07T20:43:44.607Z,99453.06
2023-01-07T20:46:11.430Z,99455.63
2023-01-07T20:48:38.003Z,99455.81
2023-01-07T20:51:09.160Z,99467.66
2023-01-07T20:53:36.949Z,99460.78
2023-01-07T20:56:05.294Z,99460.81
2023-01-07T20:58:34.972Z,99467.09
2023-01-07T21:01:03.781Z,99481.81
2023-01-07T21:03:30.579Z,99498.91
2023-01-07T21:05:57.844Z,99491.13
2023-01-07T21:08:25.240Z,99485.03
2023-01-07T21:10:52.438Z,99488.47
2023-01-07T21:13:19.877Z,99498.81
2023-01-07T21:15:46.444Z,99497.00
2023-01-07T21:18:13.086Z,99508.03
2023-01-07T21:20:40.596Z,99498.75
2023-01-07T21:23:07.609Z,99502.06
2023-01-07T21:25:34.216Z,99494.53
2023-01-07T21:28:02.182Z,99508.22
2023-01-07T21:30:29.250Z,99505.69
2023-01-07T21:32:56.195Z,99513.44
2023-01-07T21:35:22.865Z,99523.84
2023-01-07T21:37:53.043Z,99517.84
2023-01-07T21:40:19.889Z,99517.91
2023-01-07T21:42:46.547Z,99514.34
2023-01-07T21:45:13.282Z,99503.19
2023-01-07T21:47:39.791Z,99482.47
2023-01-07T21:50:06.671Z,99487.03
2023-01-07T21:52:36.787Z,99459.81
2023-01-07T21:55:04.243Z,99444.31
2023-01-07T21:57:30.892Z,99451.09
2023-01-07T21:59:57.438Z,99456.22
2023-01-07T22:02:24.048Z,99460.50
2023-01-07T22:04:50.688Z,99467.34
2023-01-07T22:07:18.975Z,99468.06
2023-01-07T22:09:45.811Z,99469.66
2023-01-07T22:12:13.183Z,99460.13
2023-01-07T22:14:40.255Z,99471.56
2023-01-07T22:17:08.029Z,99492.16
2023-01-07T22:19:34.625Z,99494.72
2023-01-07T22:22:01.505Z,99507.28
2023-01-07T22:24:28.191Z,99501.97
2023-01-07T22:26:55.293Z,99503.56
2023-01-07T22:29:22.015Z,99496.56
2023-01-07T22:31:51.004Z,99483.03
2023-01-07T22:34:17.620Z,99477.16
2023-01-07T22:37:23.958Z,99472.88
2023-01-07T22:39:57.076Z,99475.47
2023-01-07T22:42:41.532Z,99476.22
2023-01-07T22:45:14.541Z,99485.81
2023-01-07T22:47:45.396Z,99487.69
2023-01-07T22:50:14.544Z,99491.97
2023-01-07T22:52:42.852Z,99491.16
2023-01-07T22:55:12.023Z,99500.41
2023-01-07T22:57:39.468Z,99496.25
2023-01-07T23:00:08.494Z,99487.53
2023-01-07T23:02:35.001Z,99490.91
2023-01-07T23:05:01.589Z,99485.00
2023-01-07T23:07:28.604Z,99476.19
2023-01-07T23:09:55.070Z,99468.53
2023-01-07T23:12:21.636Z,99457.44
2023-01-07T23:14:48.278Z,99454.06
2023-01-07T23:17:14.800Z,99450.03
2023-01-07T23:19:41.381Z,99454.41
2023-01-07T23:22:07.883Z,99466.41
2023-01-07T23:24:35.968Z,99460.50
2023-01-07T23:27:02.449Z,99461.31
2023-01-07T23:29:28.912Z,99472.31
2023-01-07T23:31:55.447Z,99473.19
2023-01-07T23:34:21.989Z,99473.06
2023-01-07T23:36:48.520Z,99463.59
2023-01-07T23:39:15.176Z,99448.09
2023-01-07T23:41:41.652Z,99431.88
2023-01-07T23:44:08.168Z,99431.91
2023-01-07T23:46:34.712Z,99418.47
2023-01-07T23:49:01.251Z,99414.16
2023-01-07T23:51:27.967Z,99409.88
2023-01-07T23:53:54.797Z,99403.16
2023-01-07T23:56:21.548Z,99400.28
2023-01-07T23:58:49.190Z,99378.13
